Huvudsida
METAR-TAF:

METAR-TAF

Flygplatser :

Recifes internationella flygplats

Recife, Pernambuco, Brasilien

latitud: 08-08S, longitud: 034-55W, höjd: 19 m

Aktuellt väderrapport

Denna rapport gjordes för 1 timme och 2 minuter sedan, klockan 11:00 UTC
Vind 5 kt från syd
Temperatur 25°C
Fuktighet 89%
Tryck 1016 hPa
Sikt 10 km eller mer
Spridda moln på en höjd av 2300 ft

METAR: SBRF 241100Z 19005KT 9999 SCT023 25/23 Q1016

Tid: 09:02 (12:02 UTC)

Väderprognos

Denna rapport gjordes för 2 timmar och 2 minuter sedan, klockan 10:00 UTC
Prognos gäller från 24 kl. 12 UTC till 25 kl. 12 UTC
Vind 10 kt från ost/sydost
Sikt 10 km eller mer
Spridda moln på en höjd av 2300 ft

TAF: SBRF 241000Z 2412/2512 12010KT 9999 SCT023 TX29/2415Z TN26/2506Z RMK PEA

Aktuella väderrapporter och prognoser från 4000 flygplatser (METAR- och TAF-rapporter).

De tillgängliga stationerna syns som gula och röda prickar på kartan.

För musen över prickarna för att se namnen på stationerna.

Klicka sedan för att få väderrapporter och prognoser.

För att ändra kartan: Klicka på de gröna knapparna med ett svart kors på för att zooma in; den gröna knappen med ett streck på för att zooma ut; eller på de gröna pilarna för angränsande kartor.


METAR-TAF: